Terminal Aerodrome Forecast
Issued by NWS

Home | Current Version | Previous Version | Text Only | Print | Product List | Glossary On
Versions: 1 2 3 4 5 6 7 8 9 10 11 12 13 14 15 16 17 18 19 20 21
512
FTUS45 KABQ 232333
TAFTCC
TAF
KTCC 232333Z 2400/2424 22030G40KT P6SM BKN120
     FM240200 25030G40KT P6SM SKC
     FM241400 32033G43KT P6SM BKN080
     FM241800 35036G46KT P6SM BKN070
     FM242300 36029G39KT P6SM SKC=

USA.gov is the U.S. government's official web portal to all federal, state and local government web resources and services.